sensor_id;sensor_type;location;lat;lon;timestamp;pressure;altitude;pressure_sealevel;temperature;humidity
29359;BME280;16347;53.232;6.556;2023-05-01T00:01:42;101936.94;;;15.51;45.89
29359;BME280;16347;53.232;6.556;2023-05-01T00:04:10;101934.59;;;15.72;45.79
29359;BME280;16347;53.232;6.556;2023-05-01T00:06:40;101933.19;;;15.68;45.78
29359;BME280;16347;53.232;6.556;2023-05-01T00:09:07;101931.84;;;15.64;45.98
29359;BME280;16347;53.232;6.556;2023-05-01T00:11:36;101926.84;;;15.60;46.10
29359;BME280;16347;53.232;6.556;2023-05-01T00:14:03;101928.91;;;15.66;46.01
29359;BME280;16347;53.232;6.556;2023-05-01T00:16:31;101919.34;;;15.70;45.77
29359;BME280;16347;53.232;6.556;2023-05-01T00:19:01;101924.63;;;15.63;45.69
29359;BME280;16347;53.232;6.556;2023-05-01T00:21:30;101923.09;;;15.69;45.25
29359;BME280;16347;53.232;6.556;2023-05-01T00:23:59;101919.34;;;15.70;45.85
29359;BME280;16347;53.232;6.556;2023-05-01T00:26:27;101911.59;;;15.65;45.88
29359;BME280;16347;53.232;6.556;2023-05-01T00:28:57;101909.53;;;15.59;46.12
29359;BME280;16347;53.232;6.556;2023-05-01T00:31:24;101901.81;;;15.63;45.82
29359;BME280;16347;53.232;6.556;2023-05-01T00:33:52;101909.91;;;15.64;46.06
29359;BME280;16347;53.232;6.556;2023-05-01T00:36:20;101910.38;;;15.60;46.17
29359;BME280;16347;53.232;6.556;2023-05-01T00:38:48;101901.47;;;15.58;45.99
29359;BME280;16347;53.232;6.556;2023-05-01T00:41:17;101904.81;;;15.44;45.94
29359;BME280;16347;53.232;6.556;2023-05-01T00:43:45;101898.53;;;15.51;46.22
29359;BME280;16347;53.232;6.556;2023-05-01T00:46:13;101903.75;;;15.45;46.09
29359;BME280;16347;53.232;6.556;2023-05-01T00:48:41;101905.50;;;15.46;45.92
29359;BME280;16347;53.232;6.556;2023-05-01T00:51:11;101903.63;;;15.46;46.29
29359;BME280;16347;53.232;6.556;2023-05-01T00:53:39;101892.81;;;15.45;46.35
29359;BME280;16347;53.232;6.556;2023-05-01T00:56:08;101885.44;;;15.45;46.06
29359;BME280;16347;53.232;6.556;2023-05-01T00:58:39;101883.75;;;15.44;45.96
29359;BME280;16347;53.232;6.556;2023-05-01T01:01:07;101884.13;;;15.49;45.57
29359;BME280;16347;53.232;6.556;2023-05-01T01:03:35;101880.91;;;15.54;45.87
29359;BME280;16347;53.232;6.556;2023-05-01T01:06:06;101874.66;;;15.44;46.08
29359;BME280;16347;53.232;6.556;2023-05-01T01:08:39;101877.97;;;15.55;45.79
29359;BME280;16347;53.232;6.556;2023-05-01T01:11:13;101869.59;;;15.57;45.46
29359;BME280;16347;53.232;6.556;2023-05-01T01:13:51;101865.31;;;15.54;45.95
29359;BME280;16347;53.232;6.556;2023-05-01T01:16:27;101863.22;;;15.48;45.94
29359;BME280;16347;53.232;6.556;2023-05-01T01:19:04;101868.53;;;15.50;46.04
29359;BME280;16347;53.232;6.556;2023-05-01T01:21:36;101860.44;;;15.40;46.00
29359;BME280;16347;53.232;6.556;2023-05-01T01:24:28;101857.88;;;15.47;45.93
29359;BME280;16347;53.232;6.556;2023-05-01T01:27:13;101850.34;;;15.40;45.92
29359;BME280;16347;53.232;6.556;2023-05-01T01:29:54;101847.06;;;15.37;45.89
29359;BME280;16347;53.232;6.556;2023-05-01T01:32:55;101846.69;;;15.32;45.90
29359;BME280;16347;53.232;6.556;2023-05-01T01:35:30;101838.25;;;15.25;46.02
29359;BME280;16347;53.232;6.556;2023-05-01T01:38:02;101836.72;;;15.23;45.98
29359;BME280;16347;53.232;6.556;2023-05-01T01:40:33;101823.28;;;15.46;45.23
29359;BME280;16347;53.232;6.556;2023-05-01T01:43:04;101835.53;;;15.25;45.28
29359;BME280;16347;53.232;6.556;2023-05-01T01:45:37;101830.91;;;15.26;45.38
29359;BME280;16347;53.232;6.556;2023-05-01T01:48:08;101830.03;;;15.25;45.14
29359;BME280;16347;53.232;6.556;2023-05-01T01:50:41;101830.72;;;15.19;45.12
29359;BME280;16347;53.232;6.556;2023-05-01T01:53:13;101818.00;;;15.10;45.37
29359;BME280;16347;53.232;6.556;2023-05-01T01:55:44;101822.66;;;15.18;45.18
29359;BME280;16347;53.232;6.556;2023-05-01T01:58:14;101814.13;;;15.21;45.33
29359;BME280;16347;53.232;6.556;2023-05-01T02:00:44;101817.00;;;15.19;45.10
29359;BME280;16347;53.232;6.556;2023-05-01T02:03:12;101809.81;;;15.18;45.05
29359;BME280;16347;53.232;6.556;2023-05-01T02:05:43;101807.72;;;15.12;45.33
29359;BME280;16347;53.232;6.556;2023-05-01T02:08:13;101798.50;;;15.13;45.44
29359;BME280;16347;53.232;6.556;2023-05-01T02:10:43;101792.84;;;15.15;45.57
29359;BME280;16347;53.232;6.556;2023-05-01T02:13:14;101796.97;;;15.11;45.57
29359;BME280;16347;53.232;6.556;2023-05-01T02:15:44;101797.16;;;15.17;45.47
29359;BME280;16347;53.232;6.556;2023-05-01T02:18:13;101798.69;;;15.20;45.28
29359;BME280;16347;53.232;6.556;2023-05-01T02:20:44;101792.69;;;15.24;45.15
29359;BME280;16347;53.232;6.556;2023-05-01T02:23:12;101786.72;;;15.21;45.33
29359;BME280;16347;53.232;6.556;2023-05-01T02:25:41;101776.25;;;15.24;45.21
29359;BME280;16347;53.232;6.556;2023-05-01T02:28:12;101768.72;;;15.18;45.22
29359;BME280;16347;53.232;6.556;2023-05-01T02:30:40;101770.59;;;15.18;45.13
29359;BME280;16347;53.232;6.556;2023-05-01T02:33:08;101761.00;;;15.14;45.42
29359;BME280;16347;53.232;6.556;2023-05-01T02:35:39;101754.50;;;15.15;45.52
29359;BME280;16347;53.232;6.556;2023-05-01T02:38:09;101752.78;;;15.14;45.47
29359;BME280;16347;53.232;6.556;2023-05-01T02:40:38;101751.22;;;15.11;45.48
29359;BME280;16347;53.232;6.556;2023-05-01T02:43:09;101750.41;;;15.11;45.91
29359;BME280;16347;53.232;6.556;2023-05-01T02:45:39;101742.00;;;15.12;45.64
29359;BME280;16347;53.232;6.556;2023-05-01T02:48:09;101734.25;;;15.08;45.74
29359;BME280;16347;53.232;6.556;2023-05-01T02:50:42;101730.69;;;15.07;45.51
29359;BME280;16347;53.232;6.556;2023-05-01T02:53:12;101730.50;;;15.01;45.67
29359;BME280;16347;53.232;6.556;2023-05-01T02:55:50;101720.56;;;15.00;45.86
29359;BME280;16347;53.232;6.556;2023-05-01T02:58:18;101722.94;;;14.95;46.00
29359;BME280;16347;53.232;6.556;2023-05-01T03:00:47;101720.72;;;14.98;45.82
29359;BME280;16347;53.232;6.556;2023-05-01T03:03:17;101721.44;;;15.00;45.77
29359;BME280;16347;53.232;6.556;2023-05-01T03:05:45;101721.56;;;14.99;46.08
29359;BME280;16347;53.232;6.556;2023-05-01T03:08:15;101715.09;;;15.00;46.08
29359;BME280;16347;53.232;6.556;2023-05-01T03:10:42;101707.88;;;14.99;45.91
29359;BME280;16347;53.232;6.556;2023-05-01T03:13:10;101708.22;;;14.96;45.63
29359;BME280;16347;53.232;6.556;2023-05-01T03:15:38;101698.59;;;14.92;46.18
29359;BME280;16347;53.232;6.556;2023-05-01T03:18:06;101697.22;;;14.79;46.35
29359;BME280;16347;53.232;6.556;2023-05-01T03:20:35;101692.94;;;14.85;46.21
29359;BME280;16347;53.232;6.556;2023-05-01T03:23:03;101695.66;;;14.77;46.68
29359;BME280;16347;53.232;6.556;2023-05-01T03:25:33;101685.72;;;14.76;46.36
29359;BME280;16347;53.232;6.556;2023-05-01T03:28:01;101684.34;;;14.64;46.37
29359;BME280;16347;53.232;6.556;2023-05-01T03:30:28;101678.88;;;14.72;46.11
29359;BME280;16347;53.232;6.556;2023-05-01T03:32:57;101678.00;;;14.71;46.55
29359;BME280;16347;53.232;6.556;2023-05-01T03:35:29;101681.06;;;14.68;46.59
29359;BME280;16347;53.232;6.556;2023-05-01T03:37:57;101674.41;;;14.71;46.56
29359;BME280;16347;53.232;6.556;2023-05-01T03:40:49;101672.66;;;14.62;46.56
29359;BME280;16347;53.232;6.556;2023-05-01T03:43:36;101672.00;;;14.68;46.25
29359;BME280;16347;53.232;6.556;2023-05-01T03:46:10;101664.84;;;14.67;46.45
29359;BME280;16347;53.232;6.556;2023-05-01T03:48:38;101673.19;;;14.65;46.40
29359;BME280;16347;53.232;6.556;2023-05-01T03:51:06;101658.97;;;14.62;46.46
29359;BME280;16347;53.232;6.556;2023-05-01T03:53:35;101665.66;;;14.67;46.38
29359;BME280;16347;53.232;6.556;2023-05-01T03:56:06;101664.63;;;14.60;46.64
29359;BME280;16347;53.232;6.556;2023-05-01T03:58:34;101669.78;;;14.63;46.70
29359;BME280;16347;53.232;6.556;2023-05-01T04:01:03;101664.31;;;14.63;46.63
29359;BME280;16347;53.232;6.556;2023-05-01T04:03:34;101654.03;;;14.65;46.39
29359;BME280;16347;53.232;6.556;2023-05-01T04:06:02;101652.13;;;14.58;46.59
29359;BME280;16347;53.232;6.556;2023-05-01T04:08:30;101657.25;;;14.53;46.84
29359;BME280;16347;53.232;6.556;2023-05-01T04:10:58;101647.84;;;14.55;46.58
29359;BME280;16347;53.232;6.556;2023-05-01T04:13:27;101652.09;;;14.50;46.31
29359;BME280;16347;53.232;6.556;2023-05-01T04:15:55;101644.72;;;14.42;46.52
29359;BME280;16347;53.232;6.556;2023-05-01T04:18:26;101652.38;;;14.38;46.88
29359;BME280;16347;53.232;6.556;2023-05-01T04:20:57;101664.09;;;14.31;46.94
29359;BME280;16347;53.232;6.556;2023-05-01T04:23:25;101653.00;;;14.32;46.55
29359;BME280;16347;53.232;6.556;2023-05-01T04:25:56;101650.28;;;14.32;46.51
29359;BME280;16347;53.232;6.556;2023-05-01T04:28:24;101648.75;;;14.30;46.57
29359;BME280;16347;53.232;6.556;2023-05-01T04:30:54;101647.00;;;14.29;46.78
29359;BME280;16347;53.232;6.556;2023-05-01T04:33:22;101640.28;;;14.15;47.37
29359;BME280;16347;53.232;6.556;2023-05-01T04:35:50;101646.28;;;14.27;46.72
29359;BME280;16347;53.232;6.556;2023-05-01T04:38:18;101637.78;;;14.30;46.33
29359;BME280;16347;53.232;6.556;2023-05-01T04:40:47;101637.94;;;14.28;46.70
29359;BME280;16347;53.232;6.556;2023-05-01T04:43:15;101638.81;;;14.29;46.57
29359;BME280;16347;53.232;6.556;2023-05-01T04:45:43;101637.78;;;14.30;46.54
29359;BME280;16347;53.232;6.556;2023-05-01T04:48:12;101635.06;;;14.30;46.65
29359;BME280;16347;53.232;6.556;2023-05-01T04:50:40;101639.66;;;14.29;46.98
29359;BME280;16347;53.232;6.556;2023-05-01T04:53:08;101631.47;;;14.29;47.17
29359;BME280;16347;53.232;6.556;2023-05-01T04:55:35;101631.84;;;14.34;46.76
29359;BME280;16347;53.232;6.556;2023-05-01T04:58:11;101638.03;;;14.36;46.95
29359;BME280;16347;53.232;6.556;2023-05-01T05:00:40;101635.88;;;14.30;47.31
29359;BME280;16347;53.232;6.556;2023-05-01T05:03:14;101636.59;;;14.32;47.22
29359;BME280;16347;53.232;6.556;2023-05-01T05:05:44;101638.56;;;14.40;47.02
29359;BME280;16347;53.232;6.556;2023-05-01T05:08:12;101635.50;;;14.43;47.05
29359;BME280;16347;53.232;6.556;2023-05-01T05:10:45;101633.28;;;14.47;47.22
29359;BME280;16347;53.232;6.556;2023-05-01T05:13:23;101632.41;;;14.46;47.02
29359;BME280;16347;53.232;6.556;2023-05-01T05:15:58;101632.09;;;14.49;46.85
29359;BME280;16347;53.232;6.556;2023-05-01T05:18:28;101630.03;;;14.51;46.87
29359;BME280;16347;53.232;6.556;2023-05-01T05:20:56;101631.91;;;14.51;46.70
29359;BME280;16347;53.232;6.556;2023-05-01T05:23:25;101628.88;;;14.54;46.45
29359;BME280;16347;53.232;6.556;2023-05-01T05:25:53;101632.09;;;14.57;46.46
29359;BME280;16347;53.232;6.556;2023-05-01T05:28:22;101624.41;;;14.61;46.24
29359;BME280;16347;53.232;6.556;2023-05-01T05:30:50;101620.66;;;14.62;46.27
29359;BME280;16347;53.232;6.556;2023-05-01T05:33:19;101623.25;;;14.63;46.37
29359;BME280;16347;53.232;6.556;2023-05-01T05:35:49;101623.25;;;14.63;46.47
29359;BME280;16347;53.232;6.556;2023-05-01T05:38:19;101621.53;;;14.62;46.05
29359;BME280;16347;53.232;6.556;2023-05-01T05:40:50;101619.13;;;14.67;46.23
29359;BME280;16347;53.232;6.556;2023-05-01T05:43:20;101623.06;;;14.65;46.04
29359;BME280;16347;53.232;6.556;2023-05-01T05:45:48;101612.31;;;14.63;45.88
29359;BME280;16347;53.232;6.556;2023-05-01T05:48:16;101616.38;;;14.59;45.88
29359;BME280;16347;53.232;6.556;2023-05-01T05:50:44;101614.84;;;14.65;45.69
29359;BME280;16347;53.232;6.556;2023-05-01T05:53:13;101609.75;;;14.70;45.66
29359;BME280;16347;53.232;6.556;2023-05-01T05:55:42;101608.72;;;14.71;45.80
29359;BME280;16347;53.232;6.556;2023-05-01T05:58:10;101609.03;;;14.68;45.67
29359;BME280;16347;53.232;6.556;2023-05-01T06:00:40;101605.81;;;14.72;45.70
29359;BME280;16347;53.232;6.556;2023-05-01T06:03:08;101605.28;;;14.69;45.67
29359;BME280;16347;53.232;6.556;2023-05-01T06:05:37;101605.28;;;14.69;45.91
29359;BME280;16347;53.232;6.556;2023-05-01T06:08:05;101603.56;;;14.68;45.93
29359;BME280;16347;53.232;6.556;2023-05-01T06:10:34;101605.13;;;14.70;46.02
29359;BME280;16347;53.232;6.556;2023-05-01T06:13:02;101597.13;;;14.77;45.47
29359;BME280;16347;53.232;6.556;2023-05-01T06:15:43;101593.50;;;14.76;45.26
29359;BME280;16347;53.232;6.556;2023-05-01T06:18:12;101591.13;;;14.73;45.19
29359;BME280;16347;53.232;6.556;2023-05-01T06:20:40;101591.63;;;14.77;45.30
29359;BME280;16347;53.232;6.556;2023-05-01T06:23:08;101594.38;;;14.85;45.39
29359;BME280;16347;53.232;6.556;2023-05-01T06:25:46;101593.50;;;14.84;45.45
29359;BME280;16347;53.232;6.556;2023-05-01T06:28:14;101584.13;;;14.87;45.24
29359;BME280;16347;53.232;6.556;2023-05-01T06:30:42;101591.47;;;14.95;44.85
29359;BME280;16347;53.232;6.556;2023-05-01T06:33:11;101584.13;;;14.95;45.10
29359;BME280;16347;53.232;6.556;2023-05-01T06:35:41;101586.19;;;15.01;45.15
29359;BME280;16347;53.232;6.556;2023-05-01T06:38:09;101590.47;;;14.96;45.25
29359;BME280;16347;53.232;6.556;2023-05-01T06:40:37;101584.16;;;15.03;45.29
29359;BME280;16347;53.232;6.556;2023-05-01T06:43:07;101586.19;;;15.09;45.50
29359;BME280;16347;53.232;6.556;2023-05-01T06:45:35;101583.78;;;15.14;45.23
29359;BME280;16347;53.232;6.556;2023-05-01T06:48:05;101586.22;;;15.17;45.41
29359;BME280;16347;53.232;6.556;2023-05-01T06:50:34;101585.16;;;15.18;45.28
29359;BME280;16347;53.232;6.556;2023-05-01T06:53:02;101581.06;;;15.22;45.41
29359;BME280;16347;53.232;6.556;2023-05-01T06:55:30;101583.66;;;15.24;45.04
29359;BME280;16347;53.232;6.556;2023-05-01T06:58:01;101574.88;;;15.28;44.75
29359;BME280;16347;53.232;6.556;2023-05-01T07:00:43;101578.50;;;15.29;44.37
29359;BME280;16347;53.232;6.556;2023-05-01T07:03:11;101583.97;;;15.37;44.26
29359;BME280;16347;53.232;6.556;2023-05-01T07:05:39;101589.97;;;15.40;44.17
29359;BME280;16347;53.232;6.556;2023-05-01T07:08:07;101576.09;;;15.42;44.13
29359;BME280;16347;53.232;6.556;2023-05-01T07:10:35;101583.97;;;15.45;43.55
29359;BME280;16347;53.232;6.556;2023-05-01T07:13:07;101577.00;;;15.51;43.59
29359;BME280;16347;53.232;6.556;2023-05-01T07:15:35;101572.19;;;15.53;43.41
29359;BME280;16347;53.232;6.556;2023-05-01T07:18:04;101579.88;;;15.57;43.31
29359;BME280;16347;53.232;6.556;2023-05-01T07:20:33;101569.78;;;15.58;42.91
29359;BME280;16347;53.232;6.556;2023-05-01T07:23:01;101564.13;;;15.59;42.99
29359;BME280;16347;53.232;6.556;2023-05-01T07:25:33;101561.88;;;15.63;43.07
29359;BME280;16347;53.232;6.556;2023-05-01T07:28:03;101556.75;;;15.60;42.98
29359;BME280;16347;53.232;6.556;2023-05-01T07:30:31;101561.53;;;15.66;43.02
29359;BME280;16347;53.232;6.556;2023-05-01T07:32:59;101553.16;;;15.67;43.22
29359;BME280;16347;53.232;6.556;2023-05-01T07:35:28;101560.50;;;15.67;41.32
29359;BME280;16347;53.232;6.556;2023-05-01T07:37:56;101556.75;;;15.68;41.36
29359;BME280;16347;53.232;6.556;2023-05-01T07:40:24;101556.56;;;15.69;41.08
29359;BME280;16347;53.232;6.556;2023-05-01T07:42:52;101553.97;;;15.76;41.34
29359;BME280;16347;53.232;6.556;2023-05-01T07:45:20;101554.81;;;15.84;41.52
29359;BME280;16347;53.232;6.556;2023-05-01T07:47:48;101551.16;;;15.92;41.49
29359;BME280;16347;53.232;6.556;2023-05-01T07:50:16;101546.38;;;15.94;40.49
29359;BME280;16347;53.232;6.556;2023-05-01T07:52:45;101555.78;;;16.00;40.60
29359;BME280;16347;53.232;6.556;2023-05-01T07:55:13;101554.91;;;16.07;40.39
29359;BME280;16347;53.232;6.556;2023-05-01T07:57:41;101552.47;;;16.12;40.89
29359;BME280;16347;53.232;6.556;2023-05-01T08:00:10;101546.09;;;16.20;40.58
29359;BME280;16347;53.232;6.556;2023-05-01T08:02:41;101551.22;;;16.23;41.14
29359;BME280;16347;53.232;6.556;2023-05-01T08:05:09;101553.13;;;16.22;39.77
29359;BME280;16347;53.232;6.556;2023-05-01T08:07:37;101555.69;;;16.24;39.79
29359;BME280;16347;53.232;6.556;2023-05-01T08:10:07;101555.69;;;16.24;39.71
29359;BME280;16347;53.232;6.556;2023-05-01T08:12:35;101556.19;;;16.27;38.61
29359;BME280;16347;53.232;6.556;2023-05-01T08:15:04;101555.63;;;16.32;38.07
29359;BME280;16347;53.232;6.556;2023-05-01T08:17:32;101549.13;;;16.33;38.00
29359;BME280;16347;53.232;6.556;2023-05-01T08:20:01;101546.56;;;16.31;36.03
29359;BME280;16347;53.232;6.556;2023-05-01T08:22:29;101549.13;;;16.33;34.15
29359;BME280;16347;53.232;6.556;2023-05-01T08:24:57;101541.75;;;16.33;35.90
29359;BME280;16347;53.232;6.556;2023-05-01T08:27:26;101542.41;;;16.35;36.98
29359;BME280;16347;53.232;6.556;2023-05-01T08:29:54;101546.66;;;16.46;36.33
29359;BME280;16347;53.232;6.556;2023-05-01T08:32:22;101544.63;;;16.40;35.36
29359;BME280;16347;53.232;6.556;2023-05-01T08:34:50;101541.22;;;16.38;36.18
29359;BME280;16347;53.232;6.556;2023-05-01T08:37:18;101536.91;;;16.35;35.70
29359;BME280;16347;53.232;6.556;2023-05-01T08:39:46;101538.25;;;16.48;36.03
29359;BME280;16347;53.232;6.556;2023-05-01T08:42:14;101532.03;;;16.62;36.38
29359;BME280;16347;53.232;6.556;2023-05-01T08:44:45;101530.56;;;16.74;36.79
29359;BME280;16347;53.232;6.556;2023-05-01T08:47:15;101532.88;;;16.85;36.35
29359;BME280;16347;53.232;6.556;2023-05-01T08:49:44;101534.53;;;16.94;35.74
29359;BME280;16347;53.232;6.556;2023-05-01T08:52:13;101538.00;;;16.88;34.72
29359;BME280;16347;53.232;6.556;2023-05-01T08:54:42;101530.16;;;16.85;35.05
29359;BME280;16347;53.232;6.556;2023-05-01T08:57:12;101532.03;;;16.84;34.85
29359;BME280;16347;53.232;6.556;2023-05-01T08:59:40;101528.22;;;16.85;35.22
29359;BME280;16347;53.232;6.556;2023-05-01T09:02:09;101530.06;;;16.93;35.70
29359;BME280;16347;53.232;6.556;2023-05-01T09:04:39;101520.06;;;17.00;35.60
29359;BME280;16347;53.232;6.556;2023-05-01T09:07:08;101527.19;;;17.09;35.57
29359;BME280;16347;53.232;6.556;2023-05-01T09:09:36;101514.25;;;17.18;35.15
29359;BME280;16347;53.232;6.556;2023-05-01T09:12:11;101520.00;;;17.08;35.36
29359;BME280;16347;53.232;6.556;2023-05-01T09:14:44;101524.81;;;17.06;35.58
29359;BME280;16347;53.232;6.556;2023-05-01T09:17:14;101524.91;;;17.13;35.89
29359;BME280;16347;53.232;6.556;2023-05-01T09:19:42;101521.94;;;17.22;35.95
29359;BME280;16347;53.232;6.556;2023-05-01T09:22:10;101522.22;;;17.27;35.58
29359;BME280;16347;53.232;6.556;2023-05-01T09:24:38;101516.84;;;17.34;36.03
29359;BME280;16347;53.232;6.556;2023-05-01T09:27:06;101518.56;;;17.35;36.27
29359;BME280;16347;53.232;6.556;2023-05-01T09:29:38;101519.50;;;17.42;36.30
29359;BME280;16347;53.232;6.556;2023-05-01T09:32:15;101520.94;;;17.53;37.16
29359;BME280;16347;53.232;6.556;2023-05-01T09:34:45;101512.16;;;17.57;37.38
29359;BME280;16347;53.232;6.556;2023-05-01T09:37:24;101507.44;;;17.66;37.32
29359;BME280;16347;53.232;6.556;2023-05-01T09:40:04;101519.19;;;17.74;37.34
29359;BME280;16347;53.232;6.556;2023-05-01T09:42:35;101509.06;;;17.75;36.76
29359;BME280;16347;53.232;6.556;2023-05-01T09:45:05;101512.06;;;17.80;36.48
29359;BME280;16347;53.232;6.556;2023-05-01T09:47:35;101503.72;;;17.88;36.67
29359;BME280;16347;53.232;6.556;2023-05-01T09:50:04;101508.38;;;17.87;36.84
29359;BME280;16347;53.232;6.556;2023-05-01T09:52:32;101506.41;;;17.96;36.73
29359;BME280;16347;53.232;6.556;2023-05-01T09:55:13;101507.69;;;18.00;36.11
29359;BME280;16347;53.232;6.556;2023-05-01T09:57:42;101509.03;;;18.04;36.16
29359;BME280;16347;53.232;6.556;2023-05-01T10:00:12;101505.50;;;18.10;36.31
29359;BME280;16347;53.232;6.556;2023-05-01T10:02:43;101504.75;;;18.16;36.09
29359;BME280;16347;53.232;6.556;2023-05-01T10:05:12;101505.88;;;18.22;36.54
29359;BME280;16347;53.232;6.556;2023-05-01T10:07:55;101506.66;;;18.16;35.81
29359;BME280;16347;53.232;6.556;2023-05-01T10:10:24;101508.00;;;18.05;35.00
29359;BME280;16347;53.232;6.556;2023-05-01T10:12:52;101507.03;;;18.13;35.88
29359;BME280;16347;53.232;6.556;2023-05-01T10:15:21;101505.41;;;18.04;34.17
29359;BME280;16347;53.232;6.556;2023-05-01T10:17:53;101510.63;;;18.13;33.67
29359;BME280;16347;53.232;6.556;2023-05-01T10:20:23;101505.59;;;18.17;34.74
29359;BME280;16347;53.232;6.556;2023-05-01T10:22:53;101508.91;;;18.27;36.15
29359;BME280;16347;53.232;6.556;2023-05-01T10:25:24;101514.88;;;18.30;34.87
29359;BME280;16347;53.232;6.556;2023-05-01T10:27:54;101506.13;;;18.27;35.03
29359;BME280;16347;53.232;6.556;2023-05-01T10:30:24;101510.44;;;18.29;35.42
29359;BME280;16347;53.232;6.556;2023-05-01T10:32:53;101512.13;;;18.30;35.75
29359;BME280;16347;53.232;6.556;2023-05-01T10:35:25;101504.31;;;18.34;36.41
29359;BME280;16347;53.232;6.556;2023-05-01T10:37:58;101506.69;;;18.37;36.99
29359;BME280;16347;53.232;6.556;2023-05-01T10:40:43;101499.47;;;18.51;37.66
29359;BME280;16347;53.232;6.556;2023-05-01T10:43:17;101500.78;;;18.55;37.93
29359;BME280;16347;53.232;6.556;2023-05-01T10:45:45;101497.00;;;18.56;36.57
29359;BME280;16347;53.232;6.556;2023-05-01T10:48:56;101501.47;;;18.42;36.62
29359;BME280;16347;53.232;6.556;2023-05-01T10:51:25;101507.53;;;18.37;37.17
29359;BME280;16347;53.232;6.556;2023-05-01T10:54:21;101506.41;;;18.47;37.91
29359;BME280;16347;53.232;6.556;2023-05-01T10:56:51;101504.53;;;18.32;38.12
29359;BME280;16347;53.232;6.556;2023-05-01T10:59:20;101503.22;;;18.28;38.73
29359;BME280;16347;53.232;6.556;2023-05-01T11:01:48;101503.94;;;18.37;38.37
29359;BME280;16347;53.232;6.556;2023-05-01T11:04:48;101510.84;;;18.48;38.52
29359;BME280;16347;53.232;6.556;2023-05-01T11:07:17;101500.50;;;18.50;38.90
29359;BME280;16347;53.232;6.556;2023-05-01T11:09:46;101507.16;;;18.55;38.52
29359;BME280;16347;53.232;6.556;2023-05-01T11:12:47;101502.75;;;18.61;39.22
29359;BME280;16347;53.232;6.556;2023-05-01T11:15:26;101500.63;;;18.56;37.69
29359;BME280;16347;53.232;6.556;2023-05-01T11:17:55;101495.56;;;18.60;38.22
29359;BME280;16347;53.232;6.556;2023-05-01T11:20:55;101490.78;;;18.68;38.12
29359;BME280;16347;53.232;6.556;2023-05-01T11:23:23;101498.84;;;18.70;38.94
29359;BME280;16347;53.232;6.556;2023-05-01T11:26:01;101492.09;;;18.72;37.97
29359;BME280;16347;53.232;6.556;2023-05-01T11:28:30;101488.88;;;18.69;37.92
29359;BME280;16347;53.232;6.556;2023-05-01T11:30:59;101479.31;;;18.86;39.18
29359;BME280;16347;53.232;6.556;2023-05-01T11:33:27;101476.84;;;18.98;39.91
29359;BME280;16347;53.232;6.556;2023-05-01T11:35:58;101474.16;;;19.04;38.50
29359;BME280;16347;53.232;6.556;2023-05-01T11:38:27;101478.84;;;19.04;38.09
29359;BME280;16347;53.232;6.556;2023-05-01T11:41:00;101481.25;;;19.13;38.46
29359;BME280;16347;53.232;6.556;2023-05-01T11:43:29;101471.38;;;19.25;38.30
29359;BME280;16347;53.232;6.556;2023-05-01T11:45:57;101480.78;;;19.37;37.29
29359;BME280;16347;53.232;6.556;2023-05-01T11:48:30;101480.16;;;19.35;36.97
29359;BME280;16347;53.232;6.556;2023-05-01T11:50:59;101474.00;;;19.33;36.21
29359;BME280;16347;53.232;6.556;2023-05-01T11:53:27;101477.19;;;19.37;35.88
29359;BME280;16347;53.232;6.556;2023-05-01T11:55:55;101475.56;;;19.21;36.23
29359;BME280;16347;53.232;6.556;2023-05-01T11:58:32;101471.63;;;19.03;36.81
29359;BME280;16347;53.232;6.556;2023-05-01T12:01:02;101475.41;;;19.02;37.37
29359;BME280;16347;53.232;6.556;2023-05-01T12:03:39;101472.25;;;19.05;37.80
29359;BME280;16347;53.232;6.556;2023-05-01T12:06:10;101478.16;;;19.02;37.44
29359;BME280;16347;53.232;6.556;2023-05-01T12:08:43;101472.72;;;19.08;37.43
29359;BME280;16347;53.232;6.556;2023-05-01T12:11:16;101477.41;;;19.14;37.70
29359;BME280;16347;53.232;6.556;2023-05-01T12:13:46;101469.09;;;19.08;37.21
29359;BME280;16347;53.232;6.556;2023-05-01T12:16:15;101466.38;;;19.14;36.68
29359;BME280;16347;53.232;6.556;2023-05-01T12:18:44;101467.91;;;19.17;37.08
29359;BME280;16347;53.232;6.556;2023-05-01T12:21:15;101472.19;;;19.19;37.71
29359;BME280;16347;53.232;6.556;2023-05-01T12:23:44;101465.22;;;19.23;37.77
29359;BME280;16347;53.232;6.556;2023-05-01T12:26:16;101472.16;;;19.40;38.04
29359;BME280;16347;53.232;6.556;2023-05-01T12:28:55;101478.25;;;19.36;37.29
29359;BME280;16347;53.232;6.556;2023-05-01T12:31:24;101474.75;;;19.27;36.78
29359;BME280;16347;53.232;6.556;2023-05-01T12:33:53;101476.06;;;19.31;37.72
29359;BME280;16347;53.232;6.556;2023-05-01T12:36:25;101473.00;;;19.41;38.19
29359;BME280;16347;53.232;6.556;2023-05-01T12:38:57;101481.97;;;19.50;38.33
29359;BME280;16347;53.232;6.556;2023-05-01T12:41:34;101477.56;;;19.55;36.93
29359;BME280;16347;53.232;6.556;2023-05-01T12:44:05;101477.72;;;19.47;37.31
29359;BME280;16347;53.232;6.556;2023-05-01T12:46:41;101471.41;;;19.53;36.09
29359;BME280;16347;53.232;6.556;2023-05-01T12:49:15;101474.19;;;19.60;36.97
29359;BME280;16347;53.232;6.556;2023-05-01T12:51:46;101478.81;;;19.53;36.81
29359;BME280;16347;53.232;6.556;2023-05-01T12:54:19;101469.91;;;19.51;36.55
29359;BME280;16347;53.232;6.556;2023-05-01T12:56:47;101474.53;;;19.43;37.23
29359;BME280;16347;53.232;6.556;2023-05-01T12:59:19;101468.59;;;19.47;36.70
29359;BME280;16347;53.232;6.556;2023-05-01T13:01:48;101468.78;;;19.45;36.91
29359;BME280;16347;53.232;6.556;2023-05-01T13:04:23;101472.59;;;19.44;37.16
29359;BME280;16347;53.232;6.556;2023-05-01T13:06:54;101467.75;;;19.46;37.58
29359;BME280;16347;53.232;6.556;2023-05-01T13:09:23;101471.19;;;19.55;37.77